Time;durP1;ratioP1;P1;durP2;ratioP2;P2;SDS_P1;SDS_P2;PMS_P1;PMS_P2;Temp;Humidity;BMP_temperature;BMP_pressure;BME280_temperature;BME280_humidity;BME280_pressure;Samples;Min_cycle;Max_cycle;Signal;HPM_P1;HPM_P2
2022/10/20 00:01:52;;;;;;;5.00;4.00;;;;;;;6.81;74.33;97803.70;107680;1269;58949;-81
2022/10/20 00:04:23;;;;;;;5.40;4.20;;;;;;;6.79;74.46;97806.75;107647;1269;70570;-81
2022/10/20 00:06:56;;;;;;;5.30;4.60;;;;;;;6.79;74.12;97809.16;107716;1269;69138;-81
2022/10/20 00:09:29;;;;;;;6.90;4.40;;;;;;;6.75;74.46;97808.86;107617;1269;68988;-81
2022/10/20 00:12:00;;;;;;;7.00;4.30;;;;;;;6.70;74.06;97807.71;107671;1269;58979;-81
2022/10/20 00:14:33;;;;;;;6.60;4.00;;;;;;;6.63;73.78;97811.69;107698;1269;58917;-81
2022/10/20 00:17:04;;;;;;;6.30;4.00;;;;;;;6.57;73.87;97811.15;107711;1268;70624;-81
2022/10/20 00:19:33;;;;;;;;;;;;;;;6.52;75.00;97816.77;107659;1270;68235;-81
2022/10/20 00:22:04;;;;;;;9.50;5.20;;;;;;;6.48;75.77;97817.48;107755;1268;69208;-81
2022/10/20 00:24:35;;;;;;;6.20;4.70;;;;;;;6.46;76.15;97819.67;107678;1270;58977;-81
2022/10/20 00:27:07;;;;;;;6.10;3.90;;;;;;;6.41;75.81;97820.97;107595;1269;58829;-80
2022/10/20 00:29:37;;;;;;;7.50;5.20;;;;;;;6.34;75.95;97823.86;107674;1265;70623;-81
2022/10/20 00:32:10;;;;;;;8.00;4.90;;;;;;;6.28;76.19;97825.55;107652;1264;68733;-82
2022/10/20 00:34:39;;;;;;;;;;;;;;;6.24;75.67;97821.09;107616;1269;70399;-82
2022/10/20 00:37:10;;;;;;;6.10;4.20;;;;;;;6.20;75.78;97819.76;107662;1268;58935;-82
2022/10/20 00:39:41;;;;;;;6.40;4.30;;;;;;;6.14;75.61;97820.37;107652;1268;58928;-82
2022/10/20 00:42:16;;;;;;;6.60;4.10;;;;;;;6.09;75.75;97820.25;107614;1268;70649;-82
2022/10/20 00:44:48;;;;;;;5.60;3.90;;;;;;;6.06;75.63;97816.92;107640;1269;69023;-82
2022/10/20 00:47:32;;;;;;;5.80;3.90;;;;;;;6.03;75.75;97813.98;107665;1268;68475;-82
2022/10/20 00:50:27;;;;;;;6.10;5.00;;;;;;;5.99;75.65;97815.38;107667;1268;58969;-82
2022/10/20 00:53:00;;;;;;;5.40;3.90;;;;;;;5.95;75.87;97813.69;107733;1266;58949;-82
2022/10/20 00:55:35;;;;;;;5.60;4.50;;;;;;;5.90;75.56;97810.95;107722;1269;69940;-82
2022/10/20 00:58:04;;;;;;;5.50;3.70;;;;;;;5.84;75.81;97814.66;107680;1268;69078;-82
2022/10/20 01:00:39;;;;;;;5.80;4.20;;;;;;;5.81;76.95;97815.00;107706;1265;69738;-82
2022/10/20 01:03:16;;;;;;;7.20;4.60;;;;;;;5.81;77.18;97808.44;107723;1266;58980;-83
2022/10/20 01:05:47;;;;;;;5.60;4.40;;;;;;;5.77;77.13;97808.26;107598;1270;58941;-83
2022/10/20 01:08:19;;;;;;;5.50;4.40;;;;;;;5.77;77.02;97808.11;107558;1266;69636;-83
2022/10/20 01:11:08;;;;;;;7.30;4.30;;;;;;;5.76;77.20;97809.70;107664;1267;69066;-84
2022/10/20 01:14:01;;;;;;;6.70;4.10;;;;;;;5.75;77.13;97814.92;107727;1266;68573;-83
2022/10/20 01:16:43;;;;;;;6.40;4.40;;;;;;;5.75;77.17;97814.23;107766;1268;58959;-82
2022/10/20 01:19:26;;;;;;;4.60;3.90;;;;;;;5.80;77.22;97816.45;107694;1268;58932;-82
2022/10/20 01:22:08;;;;;;;5.20;4.00;;;;;;;5.79;77.45;97816.82;107647;1269;69611;-83
2022/10/20 01:25:04;;;;;;;6.50;3.70;;;;;;;5.81;77.17;97814.11;107559;1266;68719;-83
2022/10/20 01:27:42;;;;;;;5.80;4.00;;;;;;;5.85;77.42;97814.98;107707;1268;69304;-82
2022/10/20 01:30:17;;;;;;;7.00;4.30;;;;;;;5.85;77.39;97817.20;107700;1266;58994;-82
2022/10/20 01:33:05;;;;;;;6.70;4.20;;;;;;;5.87;77.51;97820.41;107588;1266;58966;-82
2022/10/20 01:35:53;;;;;;;6.20;4.10;;;;;;;5.97;77.53;97827.59;107671;1264;71188;-82
2022/10/20 01:38:29;;;;;;;7.10;4.30;;;;;;;5.95;77.20;97832.33;107632;1269;69221;-83
2022/10/20 01:41:17;;;;;;;5.70;4.40;;;;;;;5.95;77.56;97837.73;107630;1269;69709;-82
2022/10/20 01:43:49;;;;;;;5.70;3.80;;;;;;;5.93;77.46;97841.77;107614;1269;58900;-84
2022/10/20 01:46:23;;;;;;;6.20;3.80;;;;;;;5.92;77.64;97837.70;107637;1266;58886;-84
2022/10/20 01:48:58;;;;;;;5.90;4.40;;;;;;;5.92;77.90;97833.20;107656;1269;70493;-82
2022/10/20 01:51:30;;;;;;;6.50;4.10;;;;;;;5.89;77.87;97833.31;107703;1266;69292;-83
2022/10/20 01:54:01;;;;;;;6.30;4.40;;;;;;;5.85;77.83;97839.02;107801;1265;68663;-83
2022/10/20 01:56:51;;;;;;;5.20;4.30;;;;;;;5.81;78.05;97840.92;107851;1271;58959;-83
2022/10/20 01:59:51;;;;;;;6.10;3.70;;;;;;;5.77;78.38;97837.67;107818;1268;58976;-84
2022/10/20 02:02:25;;;;;;;4.50;3.50;;;;;;;5.72;78.40;97839.11;107740;1268;70489;-83
2022/10/20 02:05:14;;;;;;;4.70;3.80;;;;;;;5.69;78.79;97842.36;107628;1269;69193;-84
2022/10/20 02:07:44;;;;;;;5.60;4.60;;;;;;;5.66;78.49;97849.95;107588;1270;70149;-83
2022/10/20 02:10:21;;;;;;;6.20;4.40;;;;;;;5.62;78.74;97852.02;107627;1266;58895;-84
2022/10/20 02:13:00;;;;;;;4.90;3.70;;;;;;;5.57;78.93;97851.74;107711;1266;58963;-83
2022/10/20 02:15:36;;;;;;;5.50;3.90;;;;;;;5.51;79.11;97849.06;107625;1269;70646;-83
2022/10/20 02:18:10;;;;;;;5.70;4.00;;;;;;;5.46;78.60;97848.96;107717;1266;69247;-83
2022/10/20 02:20:43;;;;;;;4.70;3.50;;;;;;;5.41;79.33;97850.75;107802;1264;68592;-83
2022/10/20 02:23:17;;;;;;;4.70;3.30;;;;;;;5.35;79.10;97856.88;107707;1265;59779;-83
2022/10/20 02:25:50;;;;;;;6.40;4.60;;;;;;;5.36;81.28;97861.86;107722;1266;59627;-84
2022/10/20 02:28:21;;;;;;;5.50;4.30;;;;;;;5.36;81.77;97866.85;107659;1268;71219;-84
2022/10/20 02:30:51;;;;;;;5.50;4.00;;;;;;;5.36;81.99;97869.26;107644;1266;69181;-83
2022/10/20 02:33:22;;;;;;;7.40;4.60;;;;;;;5.32;81.38;97867.55;107630;1269;69261;-83
2022/10/20 02:35:57;;;;;;;5.50;4.00;;;;;;;5.27;81.64;97869.68;107694;1264;59782;-83
2022/10/20 02:38:28;;;;;;;4.70;3.60;;;;;;;5.19;80.70;97878.17;107659;1265;59706;-83
2022/10/20 02:40:58;;;;;;;6.40;4.20;;;;;;;5.10;81.65;97881.80;107586;1269;70374;-83
2022/10/20 02:43:29;;;;;;;5.90;4.00;;;;;;;5.04;81.92;97880.84;107675;1264;69214;-83
2022/10/20 02:45:58;;;;;;;7.30;5.10;;;;;;;5.06;82.51;97882.33;107673;1269;69978;-83
2022/10/20 02:48:29;;;;;;;6.40;3.80;;;;;;;5.04;81.74;97893.33;107632;1268;59787;-83
2022/10/20 02:50:59;;;;;;;7.10;4.70;;;;;;;4.99;81.93;97895.41;107674;1266;59708;-83
2022/10/20 02:53:28;;;;;;;4.40;3.50;;;;;;;4.98;82.33;97903.73;107807;1269;72381;-83
2022/10/20 02:55:59;;;;;;;5.60;3.70;;;;;;;5.00;83.68;97904.02;107736;1268;69270;-82
2022/10/20 02:58:29;;;;;;;5.00;3.60;;;;;;;4.97;83.07;97903.10;107643;1268;69408;-78
2022/10/20 03:00:59;;;;;;;4.60;3.40;;;;;;;4.93;83.34;97902.94;107653;1270;59744;-83
2022/10/20 03:03:29;;;;;;;4.90;3.90;;;;;;;4.95;83.90;97903.71;107675;1265;60171;-83
2022/10/20 03:06:05;;;;;;;;;;;;;;;4.95;83.77;97905.63;107729;1268;71443;-83
2022/10/20 03:08:35;;;;;;;7.60;4.60;;;;;;;4.97;84.17;97907.58;107695;1266;69831;-83
2022/10/20 03:11:05;;;;;;;6.90;4.10;;;;;;;5.02;84.43;97912.56;107759;1268;69276;-82
2022/10/20 03:13:35;;;;;;;7.20;4.40;;;;;;;5.05;84.56;97908.62;107686;1267;59731;-82
2022/10/20 03:16:08;;;;;;;5.30;3.40;;;;;;;5.05;84.10;97911.91;107709;1266;59778;-83
2022/10/20 03:18:37;;;;;;;5.60;3.70;;;;;;;5.04;85.02;97912.83;107739;1269;71369;-82
2022/10/20 03:21:07;;;;;;;6.20;4.30;;;;;;;5.01;84.43;97915.02;107901;1264;69314;-83
2022/10/20 03:23:37;;;;;;;7.40;4.60;;;;;;;4.97;84.82;97915.04;107649;1264;69415;-82
2022/10/20 03:26:09;;;;;;;8.30;4.80;;;;;;;4.94;85.21;97917.41;107657;1269;59756;-83
2022/10/20 03:28:39;;;;;;;7.10;4.50;;;;;;;4.86;84.84;97918.24;107692;1270;59724;-83
2022/10/20 03:31:09;;;;;;;7.30;5.20;;;;;;;4.76;86.03;97922.45;107844;1270;70717;-84
2022/10/20 03:33:38;;;;;;;9.30;5.40;;;;;;;4.66;85.90;97925.28;107634;1261;69105;-83
2022/10/20 03:36:08;;;;;;;7.00;4.80;;;;;;;4.63;87.12;97926.83;107753;1266;69315;-83
2022/10/20 03:38:43;;;;;;;6.50;4.30;;;;;;;4.60;87.52;97937.09;107845;1265;59849;-83
2022/10/20 03:41:13;;;;;;;6.40;4.50;;;;;;;4.53;87.81;97942.04;107743;1269;59677;-83
2022/10/20 03:43:43;;;;;;;7.60;5.40;;;;;;;4.52;88.46;97943.63;107890;1265;71904;-84
2022/10/20 03:46:13;;;;;;;8.70;4.30;;;;;;;4.51;88.17;97939.55;107855;1264;69347;-83
2022/10/20 03:48:43;;;;;;;9.50;5.80;;;;;;;4.44;88.62;97940.31;107685;1264;68317;-82
2022/10/20 03:51:13;;;;;;;10.30;5.00;;;;;;;4.38;88.66;97941.61;107780;1264;59750;-82
2022/10/20 03:53:42;;;;;;;8.00;6.30;;;;;;;4.31;88.71;97944.11;107843;1268;59658;-83
2022/10/20 03:56:16;;;;;;;9.90;6.20;;;;;;;4.26;88.49;97938.63;107705;1268;70639;-83
2022/10/20 03:58:45;;;;;;;8.20;5.50;;;;;;;4.18;88.47;97943.77;107733;1264;68436;-83
2022/10/20 04:01:16;;;;;;;;;;;;;;;4.08;88.58;97942.77;107779;1264;69348;-82
2022/10/20 04:03:45;;;;;;;5.40;4.20;;;;;;;4.00;89.97;97942.56;107925;1268;59620;-82
2022/10/20 04:06:15;;;;;;;7.40;4.30;;;;;;;3.92;89.41;97934.58;107827;1262;59757;-82
2022/10/20 04:08:44;;;;;;;6.00;3.90;;;;;;;3.90;89.42;97938.64;107797;1264;70660;-83
2022/10/20 04:11:12;;;;;;;6.60;4.50;;;;;;;3.88;88.79;97947.67;107746;1269;69944;-83
2022/10/20 04:13:41;;;;;;;7.10;5.30;;;;;;;3.84;88.96;97949.73;107680;1265;69528;-83
2022/10/20 04:16:11;;;;;;;8.10;4.70;;;;;;;3.79;91.26;97949.04;107738;1268;59715;-82
2022/10/20 04:18:40;;;;;;;10.30;6.50;;;;;;;3.78;91.45;97940.95;107640;1268;59715;-83
2022/10/20 04:21:08;;;;;;;8.10;5.80;;;;;;;3.75;90.36;97939.88;107677;1269;72099;-82
2022/10/20 04:23:37;;;;;;;9.10;4.70;;;;;;;3.67;92.34;97936.55;107660;1264;68550;-82
2022/10/20 04:26:12;;;;;;;6.50;4.40;;;;;;;3.61;91.86;97934.35;107686;1268;69354;-83
2022/10/20 04:28:42;;;;;;;6.00;4.30;;;;;;;3.62;93.23;97932.98;107669;1264;59763;-82
2022/10/20 04:31:11;;;;;;;6.20;3.50;;;;;;;3.62;93.69;97935.35;107681;1268;59766;-82
2022/10/20 04:33:40;;;;;;;5.70;4.30;;;;;;;3.64;93.66;97933.38;107635;1264;71753;-82
2022/10/20 04:36:12;;;;;;;5.00;4.00;;;;;;;3.67;93.64;97936.57;107642;1265;69154;-83
2022/10/20 04:38:41;;;;;;;5.40;3.70;;;;;;;3.66;92.78;97941.77;107775;1265;69241;-83
2022/10/20 04:41:10;;;;;;;7.50;4.30;;;;;;;3.62;91.98;97948.11;107652;1268;59746;-83
2022/10/20 04:43:40;;;;;;;5.70;4.00;;;;;;;3.63;93.24;97944.31;107644;1268;59844;-72
2022/10/20 04:46:09;;;;;;;5.20;3.30;;;;;;;3.67;93.74;97951.05;107750;1264;72128;-77
2022/10/20 04:48:43;;;;;;;7.00;4.40;;;;;;;3.70;93.66;97955.92;107822;1264;69520;-81
2022/10/20 04:51:13;;;;;;;8.00;4.00;;;;;;;3.73;93.23;97958.55;107687;1268;68778;-78
2022/10/20 04:53:43;;;;;;;5.20;3.70;;;;;;;3.76;92.04;97959.85;107803;1268;59768;-76
2022/10/20 04:56:21;;;;;;;15.80;7.60;;;;;;;3.80;92.29;97963.46;107623;1268;59704;-77
2022/10/20 04:58:54;;;;;;;17.70;9.00;;;;;;;3.83;91.68;97968.02;107672;1268;71845;-79
2022/10/20 05:01:28;;;;;;;10.20;5.80;;;;;;;3.86;91.98;97968.27;107663;1265;69208;-78
2022/10/20 05:03:57;;;;;;;8.90;5.20;;;;;;;3.87;92.58;97972.71;107633;1261;69327;-78
2022/10/20 05:06:29;;;;;;;19.10;9.50;;;;;;;3.87;92.18;97978.90;107647;1264;59780;-78
2022/10/20 05:09:01;;;;;;;8.90;5.60;;;;;;;3.89;91.96;97978.66;107674;1266;59775;-78
2022/10/20 05:11:33;;;;;;;6.10;4.30;;;;;;;3.89;91.91;97982.12;107759;1268;71455;-78
2022/10/20 05:14:03;;;;;;;5.80;4.00;;;;;;;3.87;91.97;97989.77;107708;1268;69316;-78
2022/10/20 05:16:31;;;;;;;7.00;3.70;;;;;;;3.86;92.10;97996.92;107609;1262;68523;-77
2022/10/20 05:19:00;;;;;;;5.40;4.10;;;;;;;3.85;91.88;97995.23;107557;1270;59780;-77
2022/10/20 05:21:30;;;;;;;6.50;3.90;;;;;;;3.86;91.78;97995.52;107678;1268;59833;-78
2022/10/20 05:24:01;;;;;;;5.90;3.70;;;;;;;3.86;90.67;98002.09;107668;1268;70704;-80
2022/10/20 05:26:34;;;;;;;5.70;3.20;;;;;;;3.85;90.09;98005.57;107747;1265;69903;-79
2022/10/20 05:29:05;;;;;;;6.10;3.80;;;;;;;3.85;90.23;98009.69;107683;1264;68446;-78
2022/10/20 05:31:39;;;;;;;4.60;3.50;;;;;;;3.84;90.75;98015.05;107630;1266;59707;-78
2022/10/20 05:34:10;;;;;;;6.70;5.10;;;;;;;3.83;90.46;98016.98;107688;1266;59663;-78
2022/10/20 05:36:39;;;;;;;6.30;4.40;;;;;;;3.83;90.26;98023.02;107657;1268;72070;-79
2022/10/20 05:39:09;;;;;;;4.80;4.30;;;;;;;3.86;90.23;98028.27;107685;1268;69203;-79
2022/10/20 05:41:38;;;;;;;6.80;3.70;;;;;;;3.93;89.29;98032.15;107759;1263;68497;-79
2022/10/20 05:44:11;;;;;;;5.90;3.80;;;;;;;4.01;89.02;98028.73;107708;1266;59690;-78
2022/10/20 05:46:41;;;;;;;6.50;3.80;;;;;;;4.11;89.49;98033.91;107704;1265;59686;-79
2022/10/20 05:49:14;;;;;;;6.00;3.70;;;;;;;4.19;89.31;98035.86;107488;1266;71439;-79
2022/10/20 05:51:45;;;;;;;5.40;3.80;;;;;;;4.29;88.76;98038.95;107593;1269;70591;-79
2022/10/20 05:54:14;;;;;;;6.90;4.00;;;;;;;4.37;88.76;98048.13;107624;1259;68537;-79
2022/10/20 05:56:43;;;;;;;5.90;3.90;;;;;;;4.49;88.21;98047.49;107675;1265;59781;-78
2022/10/20 05:59:13;;;;;;;5.40;4.80;;;;;;;4.67;87.57;98050.09;107771;1266;59713;-79
2022/10/20 06:01:48;;;;;;;6.50;4.30;;;;;;;4.80;87.18;98053.35;107631;1268;71290;-77
2022/10/20 06:04:22;;;;;;;10.30;6.00;;;;;;;4.93;86.41;98059.42;107667;1264;69690;-77
2022/10/20 06:06:51;;;;;;;9.70;5.20;;;;;;;5.11;86.37;98065.61;107733;1269;68525;-77
2022/10/20 06:09:21;;;;;;;7.00;4.30;;;;;;;5.42;85.77;98070.55;107707;1264;59724;-77
2022/10/20 06:11:51;;;;;;;7.30;4.30;;;;;;;5.88;86.46;98072.97;107829;1265;59661;-77
2022/10/20 06:14:24;;;;;;;;;;;;;;;6.37;79.56;98073.05;107854;1266;71853;-77
2022/10/20 06:16:54;;;;;;;4.60;3.50;;;;;;;6.83;78.01;98074.89;107749;1268;69231;-77
2022/10/20 06:19:24;;;;;;;4.00;2.80;;;;;;;7.22;75.51;98077.34;107693;1267;68406;-77
2022/10/20 06:21:53;;;;;;;;;;;;;;;7.84;79.33;98078.79;107427;1270;60333;-77
2022/10/20 06:24:22;;;;;;;5.10;3.40;;;;;;;8.31;71.77;98086.61;107712;1265;59665;-77
2022/10/20 06:26:51;;;;;;;3.80;3.00;;;;;;;8.81;74.01;98083.57;107674;1268;71481;-77
2022/10/20 06:29:20;;;;;;;6.80;3.20;;;;;;;9.14;68.62;98085.38;107797;1269;69165;-77
2022/10/20 06:31:50;;;;;;;6.10;3.20;;;;;;;9.62;69.36;98088.19;107748;1265;70128;-77
2022/10/20 06:34:22;;;;;;;3.90;2.60;;;;;;;9.91;66.28;98091.18;107777;1269;59711;-77
2022/10/20 06:36:51;;;;;;;3.60;2.50;;;;;;;10.41;63.48;98090.50;107810;1264;59727;-77
2022/10/20 06:39:22;;;;;;;9.00;8.00;;;;;;;10.68;61.48;98090.86;107764;1264;71435;-77
2022/10/20 06:41:58;;;;;;;3.50;2.50;;;;;;;10.73;58.56;98092.31;107678;1268;69219;-77
2022/10/20 06:44:31;;;;;;;3.80;2.40;;;;;;;10.98;60.03;98096.84;107615;1266;69287;-77
2022/10/20 06:47:00;;;;;;;2.90;2.40;;;;;;;10.79;58.06;98098.02;107749;1266;59726;-77
2022/10/20 06:49:30;;;;;;;6.80;2.80;;;;;;;11.43;58.47;98100.92;107926;1264;59667;-76
2022/10/20 06:51:58;;;;;;;3.10;2.50;;;;;;;11.30;55.14;98098.11;107894;1264;69767;-77
2022/10/20 06:54:27;;;;;;;4.40;2.80;;;;;;;11.82;59.05;98099.57;107778;1264;69947;-77
2022/10/20 06:56:56;;;;;;;3.50;2.30;;;;;;;12.48;56.69;98106.47;107846;1264;68677;-76
2022/10/20 06:59:24;;;;;;;2.80;2.10;;;;;;;12.76;52.40;98106.42;107764;1261;59721;-77
2022/10/20 07:01:53;;;;;;;3.00;2.10;;;;;;;12.89;50.99;98107.90;107747;1268;59673;-77
2022/10/20 07:04:22;;;;;;;3.90;2.20;;;;;;;12.57;50.34;98110.41;107731;1268;71435;-77
2022/10/20 07:06:51;;;;;;;3.00;2.20;;;;;;;12.55;51.39;98110.84;107671;1269;69227;-77
2022/10/20 07:09:19;;;;;;;5.30;2.20;;;;;;;12.93;50.67;98107.29;107714;1268;69272;-77
2022/10/20 07:11:52;;;;;;;2.50;2.20;;;;;;;12.96;50.48;98111.09;107593;1268;59720;-75
2022/10/20 07:14:20;;;;;;;3.00;2.00;;;;;;;12.92;50.09;98116.49;107733;1265;59661;-72
2022/10/20 07:16:49;;;;;;;3.70;2.50;;;;;;;12.93;50.32;98117.77;107638;1269;71254;-74
2022/10/20 07:19:18;;;;;;;4.60;2.50;;;;;;;13.38;49.59;98119.27;107639;1266;68231;-74
2022/10/20 07:21:46;;;;;;;3.10;2.30;;;;;;;13.80;49.13;98131.41;107601;1266;69706;-75
2022/10/20 07:24:15;;;;;;;3.40;2.50;;;;;;;14.12;46.57;98129.95;107733;1266;59751;-74
2022/10/20 07:26:44;;;;;;;3.00;1.90;;;;;;;14.38;47.63;98133.40;107309;1265;397377;-76
2022/10/20 07:29:13;;;;;;;3.30;1.80;;;;;;;14.93;45.80;98131.38;107654;1265;71994;-76
2022/10/20 07:31:45;;;;;;;3.00;1.80;;;;;;;15.06;45.47;98131.89;107721;1264;69940;-74
2022/10/20 07:34:16;;;;;;;3.10;2.00;;;;;;;15.00;43.59;98129.73;107634;1265;69757;-74
2022/10/20 07:36:56;;;;;;;2.50;1.70;;;;;;;15.37;43.18;98128.04;107625;1266;59751;-74
2022/10/20 07:39:26;;;;;;;3.80;2.50;;;;;;;15.53;44.17;98134.45;107735;1266;59778;-75
2022/10/20 07:41:55;;;;;;;3.20;1.80;;;;;;;15.90;42.67;98136.88;107706;1269;71437;-74
2022/10/20 07:44:24;;;;;;;4.10;2.80;;;;;;;16.11;42.55;98136.34;107884;1266;69018;-74
2022/10/20 07:46:53;;;;;;;4.00;2.00;;;;;;;15.42;42.88;98138.55;107688;1270;69473;-73
2022/10/20 07:49:22;;;;;;;3.00;1.70;;;;;;;16.10;42.58;98138.73;107591;1270;59777;-73
2022/10/20 07:52:11;;;;;;;2.90;1.80;;;;;;;16.12;40.78;98137.68;107531;1267;59789;-73
2022/10/20 07:54:39;;;;;;;3.10;2.00;;;;;;;16.45;40.91;98132.81;107603;1266;71398;-73
2022/10/20 07:57:08;;;;;;;2.40;1.70;;;;;;;16.18;40.85;98132.80;107678;1268;68716;-76
2022/10/20 07:59:37;;;;;;;3.50;2.00;;;;;;;16.61;41.16;98133.73;107649;1267;69294;-78
2022/10/20 08:02:06;;;;;;;2.10;1.70;;;;;;;17.28;40.83;98130.66;107660;1261;59819;-77
2022/10/20 08:04:35;;;;;;;2.20;1.80;;;;;;;17.85;39.53;98136.86;107641;1268;59691;-76
2022/10/20 08:07:03;;;;;;;3.60;2.30;;;;;;;17.99;37.36;98135.71;107690;1267;72006;-77
2022/10/20 08:09:34;;;;;;;2.70;1.80;;;;;;;17.76;37.92;98135.25;107710;1268;69893;-76
2022/10/20 08:12:04;;;;;;;2.50;1.60;;;;;;;18.10;38.84;98139.04;107695;1269;69341;-76
2022/10/20 08:14:35;;;;;;;3.10;1.80;;;;;;;18.43;37.08;98144.59;107700;1267;59735;-76
2022/10/20 08:17:04;;;;;;;2.20;1.70;;;;;;;17.99;36.24;98140.34;107691;1263;59714;-77
2022/10/20 08:19:32;;;;;;;2.90;1.90;;;;;;;18.50;36.46;98147.31;107830;1267;72062;-77
2022/10/20 08:22:29;;;;;;;3.60;2.30;;;;;;;18.90;36.20;98141.04;107740;1269;70269;-77
2022/10/20 08:24:57;;;;;;;3.30;1.90;;;;;;;18.72;35.67;98140.96;107687;1268;69617;-77
2022/10/20 08:27:26;;;;;;;3.40;2.00;;;;;;;18.38;36.32;98137.98;107643;1265;59709;-75
2022/10/20 08:29:55;;;;;;;2.30;1.60;;;;;;;18.58;36.26;98137.15;107618;1269;59646;-76
2022/10/20 08:32:44;;;;;;;4.80;2.00;;;;;;;18.43;35.74;98137.49;107615;1266;72466;-76
2022/10/20 08:35:12;;;;;;;2.90;2.10;;;;;;;18.47;36.01;98141.52;107743;1264;69211;-76
2022/10/20 08:37:42;;;;;;;2.60;1.80;;;;;;;18.50;36.32;98136.69;107760;1264;69459;-76
2022/10/20 08:40:19;;;;;;;3.90;1.80;;;;;;;17.86;37.22;98135.22;107628;1268;59741;-76
2022/10/20 08:42:48;;;;;;;3.20;1.70;;;;;;;18.38;36.91;98138.86;107627;1266;59768;-76
2022/10/20 08:45:21;;;;;;;2.90;1.60;;;;;;;19.08;34.95;98134.36;107611;1268;70833;-76
2022/10/20 08:47:54;;;;;;;2.10;1.40;;;;;;;19.18;35.04;98130.77;107707;1264;69262;-76
2022/10/20 08:50:26;;;;;;;2.60;1.80;;;;;;;19.08;34.90;98130.33;107632;1264;69918;-77
2022/10/20 08:52:58;;;;;;;2.90;1.70;;;;;;;19.38;33.98;98130.23;107647;1268;59784;-76
2022/10/20 08:55:29;;;;;;;2.60;1.40;;;;;;;19.50;33.78;98130.77;107763;1268;59700;-76
2022/10/20 08:58:02;;;;;;;3.10;1.80;;;;;;;20.16;33.15;98133.46;107622;1266;71336;-78
2022/10/20 09:00:34;;;;;;;2.10;1.50;;;;;;;19.81;33.24;98135.89;107585;1268;69295;-75
2022/10/20 09:03:17;;;;;;;2.30;1.40;;;;;;;19.84;32.98;98138.84;107796;1264;68284;-76
2022/10/20 09:05:53;;;;;;;2.80;1.50;;;;;;;19.56;33.15;98141.70;107651;1268;59719;-76
2022/10/20 09:08:26;;;;;;;2.20;1.60;;;;;;;20.09;33.21;98140.36;107654;1264;59767;-76
2022/10/20 09:10:55;;;;;;;2.30;1.60;;;;;;;20.97;31.48;98134.39;107773;1268;71311;-75
2022/10/20 09:13:27;;;;;;;2.70;1.60;;;;;;;20.77;30.64;98138.93;107658;1264;69198;-76
2022/10/20 09:16:04;;;;;;;2.30;1.50;;;;;;;20.54;31.40;98139.90;107807;1264;70029;-75
2022/10/20 09:18:33;;;;;;;2.40;1.50;;;;;;;20.78;31.40;98142.19;107623;1262;59753;-75
2022/10/20 09:21:07;;;;;;;3.20;1.90;;;;;;;20.72;31.64;98142.27;107647;1265;59677;-75
2022/10/20 09:23:39;;;;;;;2.80;1.60;;;;;;;20.28;31.36;98141.63;107719;1264;71419;-75
2022/10/20 09:26:19;;;;;;;2.00;1.50;;;;;;;21.10;30.50;98139.46;107670;1266;69332;-75
2022/10/20 09:29:36;;;;;;;2.10;1.50;;;;;;;19.83;31.22;98140.14;107747;1268;69856;-75
2022/10/20 09:32:36;;;;;;;1.90;1.10;;;;;;;19.03;31.82;98138.38;107625;1268;59715;-75
2022/10/20 09:35:27;;;;;;;2.10;1.40;;;;;;;20.02;31.28;98143.56;107635;1264;59672;-74
2022/10/20 09:38:28;;;;;;;2.10;1.10;;;;;;;20.40;30.16;98143.07;107629;1268;72442;-75
2022/10/20 09:41:12;;;;;;;3.00;1.40;;;;;;;21.68;29.29;98152.15;107647;1268;68770;-75
2022/10/20 09:44:23;;;;;;;1.70;1.30;;;;;;;21.90;27.82;98151.22;107647;1265;69544;-74
2022/10/20 09:46:53;;;;;;;2.10;1.00;;;;;;;21.66;28.17;98154.69;107445;1271;59774;-75
2022/10/20 09:49:36;;;;;;;3.40;1.60;;;;;;;21.18;28.21;98156.33;107296;1269;59783;-74
2022/10/20 09:52:18;;;;;;;2.20;1.50;;;;;;;20.34;29.03;98155.02;107499;1264;72142;-74
2022/10/20 09:54:49;;;;;;;2.70;1.40;;;;;;;20.88;29.46;98152.66;107651;1268;69387;-74
2022/10/20 09:57:21;;;;;;;1.90;1.20;;;;;;;20.27;29.84;98150.98;107611;1268;68383;-74
2022/10/20 09:59:52;;;;;;;1.90;1.20;;;;;;;20.67;29.21;98153.92;107679;1265;59769;-75
2022/10/20 10:02:20;;;;;;;2.70;1.30;;;;;;;21.05;29.46;98149.27;107762;1268;59739;-75
2022/10/20 10:05:09;;;;;;;2.50;1.50;;;;;;;22.02;28.94;98149.56;107627;1268;72152;-75
2022/10/20 10:07:37;;;;;;;2.20;1.40;;;;;;;22.26;27.33;98148.31;107631;1266;69886;-75
2022/10/20 10:10:23;;;;;;;2.40;1.40;;;;;;;20.66;28.35;98148.20;107652;1268;69319;-74
2022/10/20 10:12:54;;;;;;;2.30;1.30;;;;;;;21.92;27.93;98142.62;107637;1260;59805;-74
2022/10/20 10:15:22;;;;;;;2.20;1.40;;;;;;;21.62;28.26;98141.23;107643;1264;59721;-75
2022/10/20 10:17:51;;;;;;;1.80;0.90;;;;;;;22.30;26.85;98142.23;107662;1268;72122;-76
2022/10/20 10:20:38;;;;;;;1.90;0.90;;;;;;;22.40;26.40;98142.90;107658;1268;69215;-75
2022/10/20 10:23:07;;;;;;;1.60;1.10;;;;;;;22.51;26.49;98139.36;107635;1264;70011;-74
2022/10/20 10:25:36;;;;;;;2.40;1.00;;;;;;;22.95;26.24;98137.35;107577;1264;59766;-75
2022/10/20 10:28:32;;;;;;;2.20;1.00;;;;;;;22.95;25.42;98131.64;107642;1264;59721;-75
2022/10/20 10:31:17;;;;;;;1.60;0.90;;;;;;;22.93;25.08;98128.67;107672;1268;71382;-76
2022/10/20 10:33:47;;;;;;;3.30;1.40;;;;;;;23.56;25.81;98128.64;107634;1268;69893;-76
2022/10/20 10:36:35;;;;;;;1.50;0.90;;;;;;;22.92;25.51;98133.05;107631;1268;69317;-75
2022/10/20 10:39:08;;;;;;;2.60;1.10;;;;;;;23.59;24.68;98123.28;107756;1264;59661;-76
2022/10/20 10:41:46;;;;;;;2.00;1.30;;;;;;;23.01;25.32;98122.30;107734;1265;59735;-75
2022/10/20 10:44:27;;;;;;;2.00;1.30;;;;;;;22.59;25.92;98125.51;107594;1254;71399;-75
2022/10/20 10:47:14;;;;;;;2.00;1.30;;;;;;;22.79;25.78;98130.02;107749;1268;68948;-76
2022/10/20 10:49:52;;;;;;;1.80;1.10;;;;;;;22.97;25.67;98128.12;107757;1268;69330;-75
2022/10/20 10:52:24;;;;;;;;;;;;;;;23.14;24.46;98117.95;107650;1264;59719;-74
2022/10/20 10:55:15;;;;;;;1.90;1.10;;;;;;;22.62;25.91;98124.50;107662;1264;59816;-75
2022/10/20 10:58:19;;;;;;;1.90;1.00;;;;;;;23.74;24.58;98113.90;107609;1264;71691;-75
2022/10/20 11:00:54;;;;;;;1.80;0.90;;;;;;;24.34;24.01;98116.67;107675;1264;69331;-75
2022/10/20 11:03:48;;;;;;;2.60;1.10;;;;;;;24.64;23.76;98111.61;107597;1268;69589;-75
2022/10/20 11:06:43;;;;;;;1.50;1.00;;;;;;;24.95;22.89;98112.95;107650;1266;59765;-75
2022/10/20 11:09:48;;;;;;;1.50;1.00;;;;;;;24.05;22.10;98106.37;107637;1266;59754;-75
2022/10/20 11:12:28;;;;;;;2.30;1.10;;;;;;;23.81;24.02;98102.16;107652;1264;70597;-75
2022/10/20 11:15:09;;;;;;;2.30;1.10;;;;;;;24.11;23.70;98104.23;107738;1268;69069;-74
2022/10/20 11:18:19;;;;;;;1.30;1.00;;;;;;;25.13;23.29;98106.73;107593;1266;69309;-76
2022/10/20 11:21:27;;;;;;;2.70;1.00;;;;;;;25.22;22.64;98104.10;107576;1266;59774;-76
2022/10/20 11:24:17;;;;;;;1.60;0.90;;;;;;;24.40;22.93;98097.14;107591;1264;59752;-76
2022/10/20 11:26:51;;;;;;;1.60;0.90;;;;;;;24.28;22.87;98099.45;107731;1265;71397;-74
2022/10/20 11:29:38;;;;;;;1.20;0.80;;;;;;;25.08;22.36;98098.56;107668;1268;69249;-77
2022/10/20 11:32:21;;;;;;;1.50;0.90;;;;;;;24.68;21.40;98097.40;107594;1265;69340;-75
2022/10/20 11:35:03;;;;;;;1.80;1.10;;;;;;;24.55;22.16;98095.48;107618;1268;59699;-77
2022/10/20 11:38:08;;;;;;;1.60;0.90;;;;;;;24.48;22.50;98093.64;107843;1264;59704;-76
2022/10/20 11:41:00;;;;;;;1.40;0.90;;;;;;;25.05;22.24;98089.70;107612;1267;72129;-78
2022/10/20 11:43:47;;;;;;;1.30;0.70;;;;;;;24.49;22.04;98088.63;107870;1267;68486;-78
2022/10/20 11:46:22;;;;;;;1.00;0.80;;;;;;;24.77;22.33;98084.67;107664;1269;69316;-77
2022/10/20 11:48:55;;;;;;;1.40;0.60;;;;;;;24.40;21.92;98085.59;107605;1265;59780;-76
2022/10/20 11:51:28;;;;;;;1.30;0.80;;;;;;;24.72;21.77;98081.15;107711;1267;59758;-77
2022/10/20 11:54:49;;;;;;;1.70;0.90;;;;;;;24.35;21.55;98079.31;107665;1267;72022;-78
2022/10/20 11:57:32;;;;;;;2.60;0.80;;;;;;;25.08;21.36;98081.48;107524;1271;69244;-77
2022/10/20 12:00:19;;;;;;;1.20;0.80;;;;;;;25.00;21.61;98083.64;107442;1269;69335;-77
2022/10/20 12:03:28;;;;;;;1.30;1.10;;;;;;;24.47;22.21;98081.91;107759;1270;59735;-76
2022/10/20 12:06:23;;;;;;;;;;;;;;;24.62;21.98;98087.16;107637;1270;59665;-75
2022/10/20 12:09:03;;;;;;;1.60;0.90;;;;;;;25.04;21.19;98085.38;107517;1269;71388;-75